Time;durP1;ratioP1;P1;durP2;ratioP2;P2;SDS_P1;SDS_P2;PMS_P1;PMS_P2;Temp;Humidity;BMP_temperature;BMP_pressure;BME280_temperature;BME280_humidity;BME280_pressure;Samples;Min_cycle;Max_cycle;Signal;HPM_P1;HPM_P2
2021/06/02 00:01:33;;;;;;;3.28;1.05;;;;;;;;;;5017861;28;20113;-51
2021/06/02 00:04:02;;;;;;;2.30;0.95;;;;;;;;;;5032385;28;20129;-48
2021/06/02 00:06:30;;;;;;;3.97;1.10;;;;;;;;;;5012922;28;20091;-51
2021/06/02 00:08:56;;;;;;;2.67;1.35;;;;;;;;;;5018979;28;20517;-49
2021/06/02 00:11:22;;;;;;;3.17;1.00;;;;;;;;;;5014769;28;20037;-51
2021/06/02 00:13:49;;;;;;;3.63;1.08;;;;;;;;;;5027694;28;20439;-49
2021/06/02 00:16:15;;;;;;;2.35;1.45;;;;;;;;;;5021810;28;20045;-48
2021/06/02 00:18:42;;;;;;;1.90;1.13;;;;;;;;;;5032490;28;20486;-48
2021/06/02 00:21:08;;;;;;;2.92;1.00;;;;;;;;;;5021799;28;20053;-49
2021/06/02 00:23:34;;;;;;;2.88;1.35;;;;;;;;;;5020640;28;20030;-49
2021/06/02 00:26:01;;;;;;;4.75;1.52;;;;;;;;;;5015311;28;20054;-48
2021/06/02 00:28:28;;;;;;;5.38;1.30;;;;;;;;;;5021817;28;20410;-48
2021/06/02 00:30:54;;;;;;;6.50;1.65;;;;;;;;;;5011853;28;20052;-49
2021/06/02 00:33:21;;;;;;;4.50;1.40;;;;;;;;;;5010352;28;20026;-48
2021/06/02 00:35:49;;;;;;;3.33;1.23;;;;;;;;;;5025962;28;20480;-48
2021/06/02 00:38:15;;;;;;;2.75;1.50;;;;;;;;;;5020489;28;20030;-48
2021/06/02 00:40:41;;;;;;;3.17;1.27;;;;;;;;;;5012062;28;20033;-51
2021/06/02 00:43:07;;;;;;;3.95;1.45;;;;;;;;;;5011698;28;20029;-48
2021/06/02 00:45:34;;;;;;;3.67;1.42;;;;;;;;;;5012979;28;20037;-49
2021/06/02 00:48:03;;;;;;;6.82;1.40;;;;;;;;;;5018813;28;20040;-48
2021/06/02 00:50:30;;;;;;;2.72;1.23;;;;;;;;;;5015901;28;20506;-49
2021/06/02 00:52:56;;;;;;;3.08;1.55;;;;;;;;;;5012834;28;20037;-48
2021/06/02 00:55:22;;;;;;;4.15;1.52;;;;;;;;;;5013681;28;20034;-49
2021/06/02 00:57:49;;;;;;;4.82;1.65;;;;;;;;;;5004728;28;20038;-48
2021/06/02 01:00:20;;;;;;;4.47;1.70;;;;;;;;;;5013455;28;20026;-46
2021/06/02 01:02:51;;;;;;;5.97;2.03;;;;;;;;;;5020891;28;20519;-48
2021/06/02 01:05:18;;;;;;;4.28;1.77;;;;;;;;;;5018039;28;20037;-48
2021/06/02 01:07:45;;;;;;;4.95;1.92;;;;;;;;;;5023853;28;20030;-48
2021/06/02 01:10:11;;;;;;;3.88;1.42;;;;;;;;;;5012305;28;20049;-49
2021/06/02 01:12:41;;;;;;;4.18;1.52;;;;;;;;;;5021778;28;20372;-49
2021/06/02 01:15:07;;;;;;;2.83;1.50;;;;;;;;;;5018332;28;20053;-48
2021/06/02 01:17:33;;;;;;;2.90;1.50;;;;;;;;;;5026656;28;20406;-49
2021/06/02 01:20:00;;;;;;;5.22;2.03;;;;;;;;;;5022755;28;20069;-52
2021/06/02 01:22:33;;;;;;;3.55;1.45;;;;;;;;;;5017565;28;20473;-49
2021/06/02 01:25:03;;;;;;;4.37;1.60;;;;;;;;;;5011430;28;20040;-48
2021/06/02 01:27:29;;;;;;;3.10;1.60;;;;;;;;;;5016204;28;20288;-48
2021/06/02 01:29:55;;;;;;;3.65;1.83;;;;;;;;;;5012333;28;20049;-48
2021/06/02 01:32:39;;;;;;;4.18;1.80;;;;;;;;;;5007200;28;20030;-48
2021/06/02 01:35:08;;;;;;;7.10;1.85;;;;;;;;;;5012025;28;20053;-48
2021/06/02 01:37:45;;;;;;;3.38;1.73;;;;;;;;;;5012115;28;20105;-49
2021/06/02 01:40:30;;;;;;;3.88;1.75;;;;;;;;;;5016526;28;20030;-48
2021/06/02 01:43:27;;;;;;;3.55;1.67;;;;;;;;;;5024272;28;20033;-48
2021/06/02 01:46:06;;;;;;;2.83;1.88;;;;;;;;;;5005962;28;20033;-48
2021/06/02 01:48:33;;;;;;;4.53;1.77;;;;;;;;;;5014945;28;20026;-51
2021/06/02 01:51:23;;;;;;;2.53;1.80;;;;;;;;;;5011105;28;20030;-48
2021/06/02 01:53:49;;;;;;;4.68;1.80;;;;;;;;;;5011281;28;20121;-48
2021/06/02 01:56:33;;;;;;;3.42;1.70;;;;;;;;;;5015795;28;20519;-48
2021/06/02 01:59:12;;;;;;;5.05;1.63;;;;;;;;;;5009334;28;20358;-51
2021/06/02 02:01:49;;;;;;;5.93;1.73;;;;;;;;;;5011566;28;20129;-48
2021/06/02 02:04:24;;;;;;;5.32;1.65;;;;;;;;;;5015177;28;20045;-49
2021/06/02 02:07:00;;;;;;;3.03;1.50;;;;;;;;;;5017006;28;20018;-49
2021/06/02 02:09:45;;;;;;;6.47;1.92;;;;;;;;;;5020290;28;20119;-51
2021/06/02 02:12:28;;;;;;;2.97;1.63;;;;;;;;;;5009928;28;20485;-49
2021/06/02 02:15:13;;;;;;;6.35;1.92;;;;;;;;;;5016155;28;20113;-48
2021/06/02 02:17:57;;;;;;;4.88;2.20;;;;;;;;;;5016725;28;20109;-50
2021/06/02 02:20:31;;;;;;;3.92;1.80;;;;;;;;;;5026697;28;20146;-52
2021/06/02 02:22:57;;;;;;;;;;;;;;;;;;5017807;28;20028;-50
2021/06/02 02:25:27;;;;;;;4.90;2.00;;;;;;;;;;5014064;28;20436;-49
2021/06/02 02:28:05;;;;;;;6.45;1.77;;;;;;;;;;5014069;28;20113;-48
2021/06/02 02:30:49;;;;;;;4.93;2.05;;;;;;;;;;5014172;28;20042;-48
2021/06/02 02:33:22;;;;;;;3.47;1.85;;;;;;;;;;5019721;28;20033;-53
2021/06/02 02:35:57;;;;;;;4.17;1.80;;;;;;;;;;5022525;28;20018;-51
2021/06/02 02:38:26;;;;;;;4.03;1.80;;;;;;;;;;5006478;28;20877;-51
2021/06/02 02:41:04;;;;;;;3.53;1.85;;;;;;;;;;5018660;28;20034;-50
2021/06/02 02:43:31;;;;;;;6.53;2.10;;;;;;;;;;5023682;28;20044;-49
2021/06/02 02:46:08;;;;;;;9.13;2.08;;;;;;;;;;5019914;28;20115;-48
2021/06/02 02:48:38;;;;;;;3.80;2.35;;;;;;;;;;5014042;28;20076;-48
2021/06/02 02:51:04;;;;;;;4.55;1.63;;;;;;;;;;5021088;28;20080;-48
2021/06/02 02:53:51;;;;;;;5.22;1.80;;;;;;;;;;5014412;28;20064;-49
2021/06/02 02:56:25;;;;;;;7.15;2.03;;;;;;;;;;5005794;28;20541;-48
2021/06/02 02:59:00;;;;;;;3.78;2.17;;;;;;;;;;5017170;28;20026;-48
2021/06/02 03:01:38;;;;;;;4.40;2.20;;;;;;;;;;5015170;28;20437;-49
2021/06/02 03:04:06;;;;;;;5.10;1.85;;;;;;;;;;5021601;28;20067;-49
2021/06/02 03:06:35;;;;;;;4.45;2.38;;;;;;;;;;5019548;28;20108;-48
2021/06/02 03:09:33;;;;;;;3.83;2.03;;;;;;;;;;5016584;28;20029;-50
2021/06/02 03:12:03;;;;;;;7.10;2.35;;;;;;;;;;5003781;28;20045;-48
2021/06/02 03:14:50;;;;;;;3.75;1.95;;;;;;;;;;5015204;28;20432;-48
2021/06/02 03:17:19;;;;;;;3.85;2.08;;;;;;;;;;5012045;28;20060;-48
2021/06/02 03:19:50;;;;;;;8.48;2.25;;;;;;;;;;5015219;28;20536;-48
2021/06/02 03:22:22;;;;;;;8.02;2.80;;;;;;;;;;5023313;28;20108;-48
2021/06/02 03:25:02;;;;;;;3.40;2.10;;;;;;;;;;5021470;28;20029;-48
2021/06/02 03:27:36;;;;;;;6.63;2.58;;;;;;;;;;5025505;28;20106;-48
2021/06/02 03:30:13;;;;;;;7.07;2.75;;;;;;;;;;5013760;28;20111;-48
2021/06/02 03:32:41;;;;;;;3.97;2.00;;;;;;;;;;5010962;28;20176;-49
2021/06/02 03:35:09;;;;;;;8.27;2.55;;;;;;;;;;5013390;28;20030;-48
2021/06/02 03:37:35;;;;;;;6.53;2.55;;;;;;;;;;5016912;28;20021;-48
2021/06/02 03:40:08;;;;;;;4.88;2.80;;;;;;;;;;5021075;28;20049;-48
2021/06/02 03:42:42;;;;;;;5.50;2.87;;;;;;;;;;5021098;28;20120;-52
2021/06/02 03:45:31;;;;;;;6.65;3.15;;;;;;;;;;5016081;28;20346;-54
2021/06/02 03:47:57;;;;;;;11.75;3.28;;;;;;;;;;5014206;28;20124;-49
2021/06/02 03:50:32;;;;;;;5.85;2.58;;;;;;;;;;5015573;28;20080;-53
2021/06/02 03:53:11;;;;;;;5.70;2.97;;;;;;;;;;5019475;28;20026;-49
2021/06/02 03:55:45;;;;;;;7.25;3.55;;;;;;;;;;5018716;28;20409;-53
2021/06/02 03:58:27;;;;;;;7.60;3.45;;;;;;;;;;5007647;28;20022;-51
2021/06/02 04:01:20;;;;;;;6.55;3.20;;;;;;;;;;5014354;28;20053;-52
2021/06/02 04:04:04;;;;;;;9.25;3.08;;;;;;;;;;5018121;28;20124;-48
2021/06/02 04:06:38;;;;;;;8.82;4.07;;;;;;;;;;5020516;28;20077;-48
2021/06/02 04:09:19;;;;;;;7.28;4.18;;;;;;;;;;5021172;28;20026;-49
2021/06/02 04:12:00;;;;;;;7.63;4.28;;;;;;;;;;5012993;28;20030;-49
2021/06/02 04:14:49;;;;;;;8.25;4.25;;;;;;;;;;5011619;28;20529;-48
2021/06/02 04:17:15;;;;;;;8.32;5.10;;;;;;;;;;5026331;28;20030;-49
2021/06/02 04:19:43;;;;;;;9.50;4.22;;;;;;;;;;5024520;28;20032;-49
2021/06/02 04:22:09;;;;;;;10.55;5.13;;;;;;;;;;5020948;28;20524;-48
2021/06/02 04:24:36;;;;;;;10.52;5.10;;;;;;;;;;5022309;28;20033;-54
2021/06/02 04:27:03;;;;;;;7.97;4.30;;;;;;;;;;5017840;28;20030;-53
2021/06/02 04:29:29;;;;;;;11.13;5.00;;;;;;;;;;5012461;28;20045;-49
2021/06/02 04:31:56;;;;;;;14.05;5.47;;;;;;;;;;5016543;28;20041;-48
2021/06/02 04:34:23;;;;;;;11.13;5.00;;;;;;;;;;5012338;28;20109;-54
2021/06/02 04:36:52;;;;;;;8.68;4.65;;;;;;;;;;5017008;28;20108;-48
2021/06/02 04:39:19;;;;;;;9.65;5.00;;;;;;;;;;5013955;28;20116;-48
2021/06/02 04:41:46;;;;;;;7.38;4.38;;;;;;;;;;5015344;28;20037;-49
2021/06/02 04:44:13;;;;;;;9.32;4.22;;;;;;;;;;5015466;28;20030;-48
2021/06/02 04:46:40;;;;;;;9.90;4.80;;;;;;;;;;5009370;28;20049;-48
2021/06/02 04:49:06;;;;;;;7.40;3.85;;;;;;;;;;5013843;28;20037;-48
2021/06/02 04:52:02;;;;;;;7.40;4.22;;;;;;;;;;5015528;28;20025;-48
2021/06/02 04:54:30;;;;;;;9.80;4.50;;;;;;;;;;5011069;28;20458;-48
2021/06/02 04:57:23;;;;;;;7.10;3.45;;;;;;;;;;5021344;28;20540;-49
2021/06/02 05:00:00;;;;;;;8.82;3.70;;;;;;;;;;5013672;28;20026;-48
2021/06/02 05:02:35;;;;;;;8.35;4.70;;;;;;;;;;5014562;28;20513;-48
2021/06/02 05:05:19;;;;;;;8.70;4.20;;;;;;;;;;5012046;28;20029;-48
2021/06/02 05:07:48;;;;;;;8.32;3.80;;;;;;;;;;5006344;28;20184;-49
2021/06/02 05:10:28;;;;;;;7.57;4.13;;;;;;;;;;5011867;28;20038;-48
2021/06/02 05:13:13;;;;;;;11.90;4.22;;;;;;;;;;5016375;28;20036;-48
2021/06/02 05:15:54;;;;;;;11.30;4.50;;;;;;;;;;5013794;28;20093;-48
2021/06/02 05:18:26;;;;;;;12.05;4.18;;;;;;;;;;5013569;28;20067;-50
2021/06/02 05:23:42;;;;;;;7.25;3.83;;;;;;;;;;5027049;28;20041;-48
2021/06/02 05:26:16;;;;;;;9.93;4.88;;;;;;;;;;5022915;28;20037;-48
2021/06/02 05:28:51;;;;;;;9.57;4.03;;;;;;;;;;5016747;28;20113;-48
2021/06/02 05:31:20;;;;;;;9.38;4.35;;;;;;;;;;5010440;28;20053;-48
2021/06/02 05:34:05;;;;;;;11.65;5.30;;;;;;;;;;5003213;28;20132;-48
2021/06/02 05:36:54;;;;;;;15.10;5.50;;;;;;;;;;5021519;28;20096;-50
2021/06/02 05:39:24;;;;;;;13.85;5.60;;;;;;;;;;5023970;28;20099;-49
2021/06/02 05:41:57;;;;;;;14.07;5.72;;;;;;;;;;5006107;28;20125;-48
2021/06/02 05:44:43;;;;;;;15.43;5.13;;;;;;;;;;5021505;28;20413;-48
2021/06/02 05:47:28;;;;;;;77.80;10.50;;;;;;;;;;5015219;28;20116;-48
2021/06/02 05:50:13;;;;;;;16.65;5.10;;;;;;;;;;5015595;28;20030;-48
2021/06/02 05:52:58;;;;;;;10.18;5.38;;;;;;;;;;5019088;28;20025;-51
2021/06/02 05:55:35;;;;;;;17.17;6.43;;;;;;;;;;5021601;28;20572;-48
2021/06/02 05:58:20;;;;;;;9.68;6.00;;;;;;;;;;5015295;28;20022;-48
2021/06/02 06:01:05;;;;;;;9.13;5.90;;;;;;;;;;5014231;28;20034;-48
2021/06/02 06:03:40;;;;;;;14.93;6.03;;;;;;;;;;5014964;28;20048;-49
2021/06/02 06:06:45;;;;;;;10.40;4.97;;;;;;;;;;5019112;28;20373;-51
2021/06/02 06:09:30;;;;;;;10.00;5.10;;;;;;;;;;4998249;28;20048;-51
2021/06/02 06:11:59;;;;;;;13.15;5.18;;;;;;;;;;4996544;28;20038;-51
2021/06/02 06:14:54;;;;;;;8.82;5.43;;;;;;;;;;5020279;28;20034;-51
2021/06/02 06:17:25;;;;;;;11.35;5.20;;;;;;;;;;5017536;28;20525;-51
2021/06/02 06:20:03;;;;;;;14.65;5.35;;;;;;;;;;5022826;28;20026;-51
2021/06/02 06:22:47;;;;;;;7.38;5.00;;;;;;;;;;5017049;28;20026;-49
2021/06/02 06:25:20;;;;;;;10.15;5.60;;;;;;;;;;5014680;28;20477;-50
2021/06/02 06:27:51;;;;;;;12.18;5.18;;;;;;;;;;5015420;28;20030;-53
2021/06/02 06:30:29;;;;;;;16.73;4.95;;;;;;;;;;5015685;28;20053;-49
2021/06/02 06:32:56;;;;;;;13.75;4.82;;;;;;;;;;5013712;28;20030;-49
2021/06/02 06:35:22;;;;;;;13.35;5.15;;;;;;;;;;5013430;28;20458;-49
2021/06/02 06:37:50;;;;;;;9.55;4.78;;;;;;;;;;5014117;28;20026;-49
2021/06/02 06:40:23;;;;;;;11.07;5.20;;;;;;;;;;5023408;28;20108;-51
2021/06/02 06:42:52;;;;;;;11.75;5.03;;;;;;;;;;5022062;28;20125;-48
2021/06/02 06:45:26;;;;;;;6.93;4.28;;;;;;;;;;5023448;28;20141;-48
2021/06/02 06:47:52;;;;;;;9.55;5.50;;;;;;;;;;5012841;28;20563;-48
2021/06/02 06:50:20;;;;;;;8.10;4.03;;;;;;;;;;5013698;28;20037;-50
2021/06/02 06:53:06;;;;;;;9.45;4.63;;;;;;;;;;5022296;28;20025;-49
2021/06/02 06:55:32;;;;;;;10.85;4.38;;;;;;;;;;5023374;28;20041;-48
2021/06/02 06:57:59;;;;;;;14.98;4.65;;;;;;;;;;5014411;28;20101;-48
2021/06/02 07:00:26;;;;;;;9.93;4.22;;;;;;;;;;5005151;28;20357;-49
2021/06/02 07:02:52;;;;;;;8.68;4.47;;;;;;;;;;5013067;28;20025;-48
2021/06/02 07:05:19;;;;;;;11.65;4.90;;;;;;;;;;5014974;28;20049;-49
2021/06/02 07:07:45;;;;;;;11.57;4.18;;;;;;;;;;5015575;28;20128;-48
2021/06/02 07:10:14;;;;;;;9.13;4.55;;;;;;;;;;5019727;28;20563;-49
2021/06/02 07:12:41;;;;;;;10.88;4.45;;;;;;;;;;5011532;28;20044;-53
2021/06/02 07:15:08;;;;;;;12.32;4.57;;;;;;;;;;5011848;28;20068;-48
2021/06/02 07:17:39;;;;;;;6.47;4.05;;;;;;;;;;5009583;28;20616;-50
2021/06/02 07:20:06;;;;;;;8.63;3.83;;;;;;;;;;5010991;28;20030;-51
2021/06/02 07:22:33;;;;;;;8.07;3.75;;;;;;;;;;5012991;28;20438;-51
2021/06/02 07:24:59;;;;;;;7.50;4.40;;;;;;;;;;5001883;28;20025;-54
2021/06/02 07:27:25;;;;;;;11.25;4.50;;;;;;;;;;5012020;28;20038;-50
2021/06/02 07:29:51;;;;;;;11.98;4.15;;;;;;;;;;5015537;28;20022;-54
2021/06/02 07:32:17;;;;;;;7.05;3.70;;;;;;;;;;5011937;28;20465;-50
2021/06/02 07:34:43;;;;;;;7.68;3.58;;;;;;;;;;5018851;28;20101;-49
2021/06/02 07:37:10;;;;;;;7.18;3.33;;;;;;;;;;5013295;28;20105;-51
2021/06/02 07:39:36;;;;;;;8.93;3.88;;;;;;;;;;5025981;28;20739;-48
2021/06/02 07:42:02;;;;;;;10.45;4.47;;;;;;;;;;5023857;28;20100;-48
2021/06/02 07:44:28;;;;;;;6.55;3.58;;;;;;;;;;5019114;28;20065;-53
2021/06/02 07:46:54;;;;;;;9.52;3.78;;;;;;;;;;5018410;28;20127;-49
2021/06/02 07:49:20;;;;;;;10.27;4.03;;;;;;;;;;5019773;28;20452;-52
2021/06/02 07:51:51;;;;;;;10.95;3.67;;;;;;;;;;5018796;28;20033;-50
2021/06/02 07:54:17;;;;;;;7.00;3.55;;;;;;;;;;5019716;28;20033;-54
2021/06/02 07:56:43;;;;;;;8.45;3.20;;;;;;;;;;5026247;28;20030;-49
2021/06/02 07:59:09;;;;;;;6.15;3.08;;;;;;;;;;5025362;28;20065;-49
2021/06/02 08:01:35;;;;;;;6.32;3.53;;;;;;;;;;5022039;28;20435;-52
2021/06/02 08:04:01;;;;;;;6.30;3.50;;;;;;;;;;5021003;28;20026;-52
2021/06/02 08:06:27;;;;;;;8.23;3.38;;;;;;;;;;5013663;28;20022;-52
2021/06/02 08:08:53;;;;;;;8.63;3.40;;;;;;;;;;5015931;28;20121;-51
2021/06/02 08:11:19;;;;;;;6.65;3.55;;;;;;;;;;5020262;28;20022;-53
2021/06/02 08:13:45;;;;;;;9.18;4.15;;;;;;;;;;5014514;28;20488;-53
2021/06/02 08:16:11;;;;;;;9.32;3.50;;;;;;;;;;5013143;28;20018;-48
2021/06/02 08:18:37;;;;;;;10.73;4.35;;;;;;;;;;5015370;28;20025;-49
2021/06/02 08:21:03;;;;;;;9.88;3.58;;;;;;;;;;5022246;28;20040;-50
2021/06/02 08:23:29;;;;;;;11.55;4.15;;;;;;;;;;5026515;28;20031;-49
2021/06/02 08:25:55;;;;;;;9.73;4.38;;;;;;;;;;5021345;28;20461;-48
2021/06/02 08:28:21;;;;;;;6.85;3.70;;;;;;;;;;5018561;28;20025;-54
2021/06/02 08:30:47;;;;;;;6.65;3.50;;;;;;;;;;5021588;28;20390;-52
2021/06/02 08:33:13;;;;;;;7.53;3.45;;;;;;;;;;5009211;28;20021;-49
2021/06/02 08:35:39;;;;;;;7.13;3.00;;;;;;;;;;5022685;28;20108;-53
2021/06/02 08:38:05;;;;;;;9.70;4.30;;;;;;;;;;5023266;28;20033;-54
2021/06/02 08:40:31;;;;;;;10.75;3.40;;;;;;;;;;5017626;28;20037;-52
2021/06/02 08:42:58;;;;;;;7.80;3.22;;;;;;;;;;5017206;28;20241;-52
2021/06/02 08:45:24;;;;;;;13.77;4.40;;;;;;;;;;5018567;28;20338;-53
2021/06/02 08:47:50;;;;;;;9.50;3.50;;;;;;;;;;5017740;28;20066;-51
2021/06/02 08:50:19;;;;;;;3.83;2.80;;;;;;;;;;5023605;28;20064;-53
2021/06/02 08:52:45;;;;;;;7.47;3.33;;;;;;;;;;5009331;28;20107;-52
2021/06/02 08:55:16;;;;;;;8.05;3.00;;;;;;;;;;5016706;28;20125;-52
2021/06/02 08:57:43;;;;;;;6.07;3.13;;;;;;;;;;5019291;28;20033;-52
2021/06/02 09:00:10;;;;;;;6.55;3.22;;;;;;;;;;5021334;28;20029;-53
2021/06/02 09:02:38;;;;;;;4.20;2.60;;;;;;;;;;5019626;28;20025;-49
2021/06/02 09:05:04;;;;;;;6.40;3.22;;;;;;;;;;5016155;28;20022;-50
2021/06/02 09:07:32;;;;;;;7.80;3.42;;;;;;;;;;5014220;28;20604;-51
2021/06/02 09:10:00;;;;;;;5.50;2.92;;;;;;;;;;5016490;28;20033;-54
2021/06/02 09:12:56;;;;;;;6.32;3.35;;;;;;;;;;5019311;28;20462;-50
2021/06/02 09:15:22;;;;;;;7.05;3.00;;;;;;;;;;5004940;28;20572;-52
2021/06/02 09:17:56;;;;;;;7.43;3.13;;;;;;;;;;5018808;28;20026;-51
2021/06/02 09:20:36;;;;;;;8.23;2.85;;;;;;;;;;5006920;28;20029;-54
2021/06/02 09:23:02;;;;;;;6.55;2.88;;;;;;;;;;5014234;28;20501;-50
2021/06/02 09:25:29;;;;;;;12.52;7.70;;;;;;;;;;5011802;28;20026;-52
2021/06/02 09:27:59;;;;;;;7.53;3.30;;;;;;;;;;5014297;28;20064;-50
2021/06/02 09:30:26;;;;;;;7.55;3.33;;;;;;;;;;5013016;28;20046;-52
2021/06/02 09:32:57;;;;;;;6.60;3.45;;;;;;;;;;5010792;28;20022;-53
2021/06/02 09:35:34;;;;;;;5.43;3.05;;;;;;;;;;5010440;28;20034;-53
2021/06/02 09:38:01;;;;;;;6.03;3.50;;;;;;;;;;5012044;28;20070;-54
2021/06/02 09:40:28;;;;;;;5.50;3.13;;;;;;;;;;5020351;28;20037;-53
2021/06/02 09:42:54;;;;;;;6.72;3.65;;;;;;;;;;5014189;28;20026;-52
2021/06/02 09:45:21;;;;;;;7.78;3.22;;;;;;;;;;5011683;28;20030;-50
2021/06/02 09:47:55;;;;;;;4.35;3.30;;;;;;;;;;5023266;28;20126;-49
2021/06/02 09:50:32;;;;;;;8.75;3.08;;;;;;;;;;5013295;28;20536;-54
2021/06/02 09:52:59;;;;;;;7.40;3.65;;;;;;;;;;5010653;28;20026;-54
2021/06/02 09:55:28;;;;;;;8.55;3.53;;;;;;;;;;5018893;28;20053;-54
2021/06/02 09:57:55;;;;;;;5.18;3.00;;;;;;;;;;5012960;28;20034;-53
2021/06/02 10:00:22;;;;;;;4.20;2.65;;;;;;;;;;5012471;28;20033;-50
2021/06/02 10:03:01;;;;;;;5.43;3.35;;;;;;;;;;5012021;28;20029;-50
2021/06/02 10:05:35;;;;;;;6.85;3.70;;;;;;;;;;5013922;28;20041;-53
2021/06/02 10:08:01;;;;;;;6.70;3.60;;;;;;;;;;5011081;28;20026;-54
2021/06/02 10:10:28;;;;;;;7.50;3.60;;;;;;;;;;5019835;28;20037;-53
2021/06/02 10:13:00;;;;;;;5.55;2.90;;;;;;;;;;5009575;28;20022;-50
2021/06/02 10:15:39;;;;;;;5.72;2.60;;;;;;;;;;5015130;28;20087;-53
2021/06/02 10:18:10;;;;;;;7.57;2.95;;;;;;;;;;5017437;28;20129;-49
2021/06/02 10:20:36;;;;;;;10.38;2.80;;;;;;;;;;5015419;28;20064;-53
2021/06/02 10:23:02;;;;;;;4.85;2.90;;;;;;;;;;5019246;28;20033;-53
2021/06/02 10:25:29;;;;;;;6.32;3.30;;;;;;;;;;5014194;28;20448;-52
2021/06/02 10:27:57;;;;;;;6.28;2.90;;;;;;;;;;5013145;28;20378;-55
2021/06/02 10:30:24;;;;;;;4.10;2.85;;;;;;;;;;5015763;28;20481;-50
2021/06/02 10:32:51;;;;;;;8.27;3.42;;;;;;;;;;5014560;28;20033;-55
2021/06/02 10:35:17;;;;;;;5.70;2.90;;;;;;;;;;5017208;28;20021;-54
2021/06/02 10:37:44;;;;;;;4.43;2.75;;;;;;;;;;5022717;28;20445;-53
2021/06/02 10:40:12;;;;;;;5.95;2.55;;;;;;;;;;5019167;28;20029;-51
2021/06/02 10:42:40;;;;;;;5.85;3.10;;;;;;;;;;5021022;28;20052;-52
2021/06/02 10:45:10;;;;;;;3.85;2.72;;;;;;;;;;5022157;28;20491;-54
2021/06/02 10:47:36;;;;;;;5.95;2.60;;;;;;;;;;5021206;28;20025;-53
2021/06/02 10:50:02;;;;;;;3.85;2.50;;;;;;;;;;5021936;28;20049;-55
2021/06/02 10:52:35;;;;;;;3.60;2.40;;;;;;;;;;5012573;28;20162;-49
2021/06/02 10:55:21;;;;;;;3.38;2.58;;;;;;;;;;5013263;28;20112;-50
2021/06/02 10:58:09;;;;;;;5.28;2.65;;;;;;;;;;5020330;28;20057;-55
2021/06/02 11:00:35;;;;;;;4.88;2.22;;;;;;;;;;5023990;28;20088;-51
2021/06/02 11:03:20;;;;;;;4.18;2.38;;;;;;;;;;5015783;28;20034;-54
2021/06/02 11:05:46;;;;;;;6.15;2.53;;;;;;;;;;5013786;28;20038;-50
2021/06/02 11:08:12;;;;;;;8.02;3.28;;;;;;;;;;5016123;28;20397;-52
2021/06/02 11:10:38;;;;;;;4.00;2.45;;;;;;;;;;5026879;28;20037;-51
2021/06/02 11:13:05;;;;;;;5.82;2.40;;;;;;;;;;5024193;28;20083;-51
2021/06/02 11:15:33;;;;;;;5.07;2.50;;;;;;;;;;5019927;28;20028;-55
2021/06/02 11:18:11;;;;;;;5.75;2.50;;;;;;;;;;5026086;28;20029;-50
2021/06/02 11:20:41;;;;;;;6.75;2.55;;;;;;;;;;5016900;28;20022;-54
2021/06/02 11:23:10;;;;;;;4.65;3.00;;;;;;;;;;5026042;28;20025;-52
2021/06/02 11:25:36;;;;;;;6.00;2.70;;;;;;;;;;5012787;28;20069;-52
2021/06/02 11:28:03;;;;;;;2.90;2.25;;;;;;;;;;5006302;28;20152;-53
2021/06/02 11:30:29;;;;;;;6.78;2.42;;;;;;;;;;5017671;28;20046;-50
2021/06/02 11:32:57;;;;;;;5.53;2.50;;;;;;;;;;5013630;28;20442;-52
2021/06/02 11:35:41;;;;;;;5.55;2.95;;;;;;;;;;5006066;28;20030;-52
2021/06/02 11:38:08;;;;;;;7.65;2.75;;;;;;;;;;5020561;28;20068;-50
2021/06/02 11:40:34;;;;;;;3.60;2.25;;;;;;;;;;5018950;28;20030;-51
2021/06/02 11:43:00;;;;;;;3.08;2.40;;;;;;;;;;5018837;28;20104;-52
2021/06/02 11:45:28;;;;;;;3.67;2.33;;;;;;;;;;5024267;28;20501;-52
2021/06/02 11:47:56;;;;;;;3.92;2.42;;;;;;;;;;5015546;28;20049;-52
2021/06/02 11:50:25;;;;;;;4.18;2.63;;;;;;;;;;5016649;28;20034;-50
2021/06/02 11:52:55;;;;;;;5.07;2.13;;;;;;;;;;5014289;28;20040;-54
2021/06/02 11:55:22;;;;;;;5.18;2.28;;;;;;;;;;5013056;28;20109;-54
2021/06/02 11:57:50;;;;;;;2.65;2.33;;;;;;;;;;5018926;28;20064;-53
2021/06/02 12:00:18;;;;;;;6.53;2.17;;;;;;;;;;5013982;28;20164;-53
2021/06/02 12:02:44;;;;;;;4.93;2.42;;;;;;;;;;5014419;28;20489;-51
2021/06/02 12:05:17;;;;;;;5.15;2.60;;;;;;;;;;5027388;28;20033;-50
2021/06/02 12:07:47;;;;;;;5.95;3.13;;;;;;;;;;5022164;28;20462;-52
2021/06/02 12:10:13;;;;;;;5.25;2.40;;;;;;;;;;5017375;28;20700;-52
2021/06/02 12:12:40;;;;;;;6.40;2.90;;;;;;;;;;5013906;28;20029;-51
2021/06/02 12:15:07;;;;;;;3.38;2.35;;;;;;;;;;5015297;28;20090;-51
2021/06/02 12:17:33;;;;;;;4.03;2.33;;;;;;;;;;5032232;28;20405;-51
2021/06/02 12:20:00;;;;;;;6.40;2.70;;;;;;;;;;5018677;28;20147;-53
2021/06/02 12:22:27;;;;;;;5.28;2.45;;;;;;;;;;5004276;28;20033;-52
2021/06/02 12:25:09;;;;;;;3.53;2.10;;;;;;;;;;5013634;28;20365;-50
2021/06/02 12:27:48;;;;;;;4.75;2.80;;;;;;;;;;5015669;28;20052;-51
2021/06/02 12:30:16;;;;;;;4.60;2.53;;;;;;;;;;5011387;28;20129;-55
2021/06/02 12:33:06;;;;;;;7.07;1.98;;;;;;;;;;5012186;28;20108;-50
2021/06/02 12:35:39;;;;;;;4.55;2.70;;;;;;;;;;5011593;28;20080;-53
2021/06/02 12:38:07;;;;;;;3.33;2.42;;;;;;;;;;5031195;28;20468;-53
2021/06/02 12:40:37;;;;;;;5.90;2.67;;;;;;;;;;5027505;28;20037;-51
2021/06/02 12:43:09;;;;;;;4.75;2.80;;;;;;;;;;5009788;28;20033;-53
2021/06/02 12:45:35;;;;;;;4.20;2.28;;;;;;;;;;5012996;28;20040;-52
2021/06/02 12:48:01;;;;;;;2.85;2.45;;;;;;;;;;5019001;28;20025;-52
2021/06/02 12:50:33;;;;;;;4.03;2.63;;;;;;;;;;5027617;28;20048;-52
2021/06/02 12:52:59;;;;;;;5.10;2.53;;;;;;;;;;5011283;28;20025;-52
2021/06/02 12:55:25;;;;;;;4.07;2.22;;;;;;;;;;5011849;28;20133;-52
2021/06/02 12:58:01;;;;;;;3.20;2.10;;;;;;;;;;5010198;28;20060;-54
2021/06/02 13:00:27;;;;;;;3.83;2.22;;;;;;;;;;5012277;28;20065;-55
2021/06/02 13:02:53;;;;;;;4.60;2.10;;;;;;;;;;5014051;28;20351;-54
2021/06/02 13:05:20;;;;;;;4.18;2.28;;;;;;;;;;5013209;28;20058;-51
2021/06/02 13:07:46;;;;;;;3.75;2.28;;;;;;;;;;5014361;28;20553;-50
2021/06/02 13:10:12;;;;;;;2.53;1.90;;;;;;;;;;5012221;28;20026;-54
2021/06/02 13:12:49;;;;;;;1.88;1.65;;;;;;;;;;5010828;28;20125;-50
2021/06/02 13:15:26;;;;;;;2.53;2.05;;;;;;;;;;5019093;28;20113;-55
2021/06/02 13:17:52;;;;;;;2.75;1.85;;;;;;;;;;5025438;28;20109;-55
2021/06/02 13:20:28;;;;;;;2.20;1.55;;;;;;;;;;5010451;28;20026;-52
2021/06/02 13:23:26;;;;;;;2.72;1.80;;;;;;;;;;5006863;28;20093;-54
2021/06/02 13:26:03;;;;;;;3.45;2.08;;;;;;;;;;4994269;28;20493;-52
2021/06/02 13:28:31;;;;;;;2.20;1.77;;;;;;;;;;5005567;28;20487;-55
2021/06/02 13:31:01;;;;;;;2.95;1.80;;;;;;;;;;5025187;28;20045;-55
2021/06/02 13:33:42;;;;;;;6.18;1.70;;;;;;;;;;5017841;28;20025;-55
2021/06/02 13:36:13;;;;;;;2.10;1.40;;;;;;;;;;5013787;28;20032;-51
2021/06/02 13:38:39;;;;;;;2.05;1.67;;;;;;;;;;5012495;28;20034;-49
2021/06/02 13:41:06;;;;;;;2.60;2.05;;;;;;;;;;5015135;28;20033;-49
2021/06/02 13:43:42;;;;;;;2.72;2.03;;;;;;;;;;5028579;28;20036;-50
2021/06/02 13:46:10;;;;;;;4.00;1.83;;;;;;;;;;5009660;28;20072;-48
2021/06/02 13:48:39;;;;;;;2.80;1.70;;;;;;;;;;5012776;28;20116;-49
2021/06/02 13:51:18;;;;;;;3.22;1.42;;;;;;;;;;5023711;28;20072;-50
2021/06/02 13:54:03;;;;;;;2.15;1.50;;;;;;;;;;5018456;28;20030;-48
2021/06/02 13:56:30;;;;;;;1.90;1.63;;;;;;;;;;5021944;28;20339;-49
2021/06/02 13:59:09;;;;;;;2.63;1.60;;;;;;;;;;5024355;28;20068;-53
2021/06/02 14:01:36;;;;;;;3.28;1.73;;;;;;;;;;5010764;28;20041;-51
2021/06/02 14:04:02;;;;;;;2.20;1.60;;;;;;;;;;5020809;28;20086;-52
2021/06/02 14:06:28;;;;;;;1.67;1.23;;;;;;;;;;5027654;28;20384;-51
2021/06/02 14:08:54;;;;;;;2.00;1.63;;;;;;;;;;5014178;28;20441;-53
2021/06/02 14:11:21;;;;;;;2.92;1.58;;;;;;;;;;5027816;28;20034;-52
2021/06/02 14:13:47;;;;;;;3.60;1.48;;;;;;;;;;5026349;28;20026;-49
2021/06/02 14:16:13;;;;;;;3.33;1.73;;;;;;;;;;5021062;28;20109;-54
2021/06/02 14:18:39;;;;;;;2.60;1.35;;;;;;;;;;5023977;28;20378;-51
2021/06/02 14:21:05;;;;;;;3.30;1.65;;;;;;;;;;5022914;28;20080;-48
2021/06/02 14:23:31;;;;;;;2.78;1.55;;;;;;;;;;5020377;28;20033;-51
2021/06/02 14:25:57;;;;;;;2.45;1.33;;;;;;;;;;5014501;28;20045;-51
2021/06/02 14:28:23;;;;;;;2.17;1.20;;;;;;;;;;5016961;28;20096;-51
2021/06/02 14:30:49;;;;;;;1.83;1.23;;;;;;;;;;5025539;28;20053;-49
2021/06/02 14:33:15;;;;;;;3.47;1.38;;;;;;;;;;5017333;28;20425;-48
2021/06/02 14:35:41;;;;;;;2.42;1.50;;;;;;;;;;5014059;28;20029;-50
2021/06/02 14:38:07;;;;;;;2.65;1.38;;;;;;;;;;5022292;28;20096;-49
2021/06/02 14:40:32;;;;;;;1.35;1.15;;;;;;;;;;5014204;28;20026;-50
2021/06/02 14:42:58;;;;;;;2.95;1.23;;;;;;;;;;5017829;28;20045;-51
2021/06/02 14:45:24;;;;;;;4.60;1.35;;;;;;;;;;5013541;28;20038;-50
2021/06/02 14:47:50;;;;;;;3.33;1.35;;;;;;;;;;5015080;28;20382;-54
2021/06/02 14:50:18;;;;;;;1.92;1.20;;;;;;;;;;5013575;28;20107;-48
2021/06/02 14:52:44;;;;;;;2.03;1.25;;;;;;;;;;5015043;28;20065;-54
2021/06/02 14:55:11;;;;;;;1.60;1.40;;;;;;;;;;5018510;28;20402;-53
2021/06/02 14:57:37;;;;;;;2.05;1.40;;;;;;;;;;5028786;28;20021;-50
2021/06/02 15:00:04;;;;;;;4.45;1.70;;;;;;;;;;5022856;28;20366;-54
2021/06/02 15:02:30;;;;;;;2.20;1.50;;;;;;;;;;5016805;28;20070;-51
2021/06/02 15:04:56;;;;;;;3.17;1.77;;;;;;;;;;5021995;28;20051;-52
2021/06/02 15:07:22;;;;;;;3.35;1.70;;;;;;;;;;5026666;28;20037;-53